createdAt,value
2018-05-01T00:00:13.354Z,0
2018-05-01T00:00:39.519Z,0
2018-05-01T00:01:05.658Z,0
2018-05-01T00:01:31.791Z,0
2018-05-01T00:01:57.968Z,0
2018-05-01T00:02:24.110Z,0
2018-05-01T00:02:50.242Z,0
2018-05-01T00:03:16.397Z,0
2018-05-01T00:03:42.542Z,0
2018-05-01T00:04:08.695Z,0
2018-05-01T00:04:34.853Z,0
2018-05-01T00:05:01.018Z,0
2018-05-01T00:05:27.155Z,0
2018-05-01T00:05:53.287Z,0
2018-05-01T00:06:19.426Z,0
2018-05-01T00:06:45.560Z,0
2018-05-01T00:07:11.702Z,0
2018-05-01T00:07:37.831Z,0
2018-05-01T00:08:03.960Z,0
2018-05-01T00:08:30.129Z,0
2018-05-01T00:08:56.265Z,0
2018-05-01T00:09:22.401Z,0
2018-05-01T00:09:48.564Z,0
2018-05-01T00:10:14.721Z,0
2018-05-01T00:10:40.855Z,0
2018-05-01T00:11:07.016Z,0
2018-05-01T00:11:33.149Z,0
2018-05-01T00:11:59.283Z,0
2018-05-01T00:12:25.413Z,0
2018-05-01T00:12:51.546Z,0
2018-05-01T00:13:17.687Z,0
2018-05-01T00:13:43.833Z,0
2018-05-01T00:14:09.959Z,0
2018-05-01T00:14:36.097Z,0
2018-05-01T00:15:02.261Z,0
2018-05-01T00:15:28.396Z,0
2018-05-01T00:15:54.529Z,0
2018-05-01T00:16:20.672Z,0
2018-05-01T00:16:46.808Z,0
2018-05-01T00:17:12.946Z,0
2018-05-01T00:17:39.077Z,0
2018-05-01T00:18:05.213Z,0
2018-05-01T00:18:31.352Z,0
2018-05-01T00:18:57.496Z,0
2018-05-01T00:19:23.654Z,0
2018-05-01T00:19:49.793Z,0
2018-05-01T00:20:15.925Z,0
2018-05-01T00:20:42.059Z,0
2018-05-01T00:21:08.194Z,0
2018-05-01T00:21:34.335Z,0
2018-05-01T00:22:00.468Z,0
2018-05-01T00:22:26.665Z,0
2018-05-01T00:22:52.759Z,0
2018-05-01T00:23:18.897Z,0
2018-05-01T00:23:45.042Z,0
2018-05-01T00:24:11.175Z,0
2018-05-01T00:24:37.314Z,0
2018-05-01T00:25:03.471Z,0
2018-05-01T00:25:29.638Z,0
2018-05-01T00:25:55.793Z,0
2018-05-01T00:26:21.967Z,0
2018-05-01T00:26:48.112Z,0
2018-05-01T00:27:14.248Z,0
2018-05-01T00:27:40.391Z,0
2018-05-01T00:28:06.552Z,0
2018-05-01T00:28:32.697Z,0
2018-05-01T00:28:58.929Z,0
2018-05-01T00:29:25.024Z,0
2018-05-01T00:29:51.200Z,0
2018-05-01T00:30:17.367Z,0
2018-05-01T00:30:43.527Z,0
2018-05-01T00:31:09.681Z,0
2018-05-01T00:31:35.818Z,0
2018-05-01T00:32:01.984Z,0
2018-05-01T00:32:28.122Z,0
2018-05-01T00:32:54.258Z,0
2018-05-01T00:33:20.421Z,0
2018-05-01T00:33:46.554Z,0
2018-05-01T00:34:12.687Z,0
2018-05-01T00:34:38.833Z,0
2018-05-01T00:35:04.966Z,0
2018-05-01T00:35:31.106Z,0
2018-05-01T00:35:57.244Z,0
2018-05-01T00:36:23.379Z,0
2018-05-01T00:36:49.513Z,0
2018-05-01T00:37:15.676Z,0
2018-05-01T00:37:41.816Z,0
2018-05-01T00:38:07.980Z,0
2018-05-01T00:38:34.109Z,0
2018-05-01T00:39:00.245Z,0
2018-05-01T00:39:26.382Z,0
2018-05-01T00:39:52.521Z,0
2018-05-01T00:40:18.654Z,0
2018-05-01T00:40:44.798Z,0
2018-05-01T00:41:10.955Z,0
2018-05-01T00:41:37.095Z,0
2018-05-01T00:42:03.226Z,0
2018-05-01T00:42:29.368Z,0
2018-05-01T00:42:55.525Z,0
2018-05-01T00:43:21.689Z,0
2018-05-01T00:43:47.826Z,0
2018-05-01T00:44:13.965Z,0
2018-05-01T00:44:40.109Z,0
2018-05-01T00:45:06.262Z,0
2018-05-01T00:45:32.403Z,0
2018-05-01T00:45:58.545Z,0
2018-05-01T00:46:24.681Z,0
2018-05-01T00:46:50.821Z,0
2018-05-01T00:47:16.966Z,0
2018-05-01T00:47:43.124Z,0
2018-05-01T00:48:09.266Z,0
2018-05-01T00:48:35.420Z,0
2018-05-01T00:49:01.585Z,0
2018-05-01T00:49:27.717Z,0
2018-05-01T00:49:53.855Z,0
2018-05-01T00:50:19.993Z,0
2018-05-01T00:50:46.127Z,0
2018-05-01T00:51:18.530Z,0
2018-05-01T00:51:44.697Z,0
2018-05-01T00:52:10.846Z,0
2018-05-01T00:52:36.992Z,0
2018-05-01T00:53:03.133Z,0
2018-05-01T00:53:29.267Z,0
2018-05-01T00:53:55.405Z,0
2018-05-01T00:54:21.543Z,0
2018-05-01T00:54:47.674Z,0
2018-05-01T00:55:13.815Z,0
2018-05-01T00:55:39.961Z,0
2018-05-01T00:56:06.091Z,0
2018-05-01T00:56:32.255Z,0
2018-05-01T00:56:58.417Z,0
2018-05-01T00:57:24.561Z,0
2018-05-01T00:57:50.699Z,0
2018-05-01T00:58:16.827Z,0
2018-05-01T00:58:42.966Z,0
2018-05-01T00:59:09.134Z,0
2018-05-01T00:59:35.267Z,0
2018-05-01T01:00:01.400Z,0
2018-05-01T01:00:27.538Z,0
2018-05-01T01:00:53.671Z,0
2018-05-01T01:01:19.806Z,0
2018-05-01T01:01:45.945Z,0
2018-05-01T01:02:12.106Z,0
2018-05-01T01:02:38.241Z,0
2018-05-01T01:03:04.383Z,0
2018-05-01T01:03:30.523Z,0
2018-05-01T01:03:56.653Z,0
2018-05-01T01:04:22.807Z,0
2018-05-01T01:04:48.944Z,0
2018-05-01T01:05:15.111Z,0
2018-05-01T01:05:41.241Z,0
2018-05-01T01:06:07.374Z,0
2018-05-01T01:06:33.514Z,0
2018-05-01T01:06:59.645Z,0
2018-05-01T01:07:25.836Z,0
2018-05-01T01:07:51.999Z,0
2018-05-01T01:08:18.139Z,0
2018-05-01T01:08:44.296Z,0
2018-05-01T01:09:10.431Z,0
2018-05-01T01:09:36.575Z,0
2018-05-01T01:10:02.709Z,0
2018-05-01T01:10:28.849Z,0
2018-05-01T01:10:54.978Z,0
2018-05-01T01:11:21.127Z,0
2018-05-01T01:11:47.262Z,0
2018-05-01T01:12:13.420Z,0
2018-05-01T01:12:39.567Z,0
2018-05-01T01:13:05.704Z,0
2018-05-01T01:13:31.865Z,0
2018-05-01T01:13:58.010Z,0
2018-05-01T01:14:24.140Z,0
2018-05-01T01:14:50.281Z,0
2018-05-01T01:15:16.412Z,0
2018-05-01T01:15:42.556Z,0
2018-05-01T01:16:08.707Z,0
2018-05-01T01:16:34.845Z,0
2018-05-01T01:17:00.973Z,0
2018-05-01T01:17:27.137Z,0
2018-05-01T01:17:53.272Z,0
2018-05-01T01:18:19.405Z,0
2018-05-01T01:18:45.568Z,0
2018-05-01T01:19:11.735Z,0
2018-05-01T01:19:37.864Z,0
2018-05-01T01:20:04.030Z,0
2018-05-01T01:20:30.187Z,0
2018-05-01T01:20:56.348Z,0
2018-05-01T01:21:22.509Z,0
2018-05-01T01:21:48.641Z,0
2018-05-01T01:22:14.780Z,0
2018-05-01T01:22:40.921Z,0
2018-05-01T01:23:07.073Z,0
2018-05-01T01:23:33.212Z,0
2018-05-01T01:23:59.393Z,0
2018-05-01T01:24:25.560Z,0
2018-05-01T01:24:51.735Z,0
2018-05-01T01:25:17.869Z,0
2018-05-01T01:25:44.005Z,0
2018-05-01T01:26:10.168Z,0
2018-05-01T01:26:36.310Z,0
2018-05-01T01:27:02.447Z,0
2018-05-01T01:27:28.610Z,0
2018-05-01T01:27:54.783Z,0
2018-05-01T01:28:20.913Z,0
2018-05-01T01:28:47.054Z,0
2018-05-01T01:29:13.186Z,0
2018-05-01T01:29:39.321Z,0
2018-05-01T01:30:05.453Z,0
2018-05-01T01:30:31.590Z,0
2018-05-01T01:30:57.746Z,0
2018-05-01T01:31:23.878Z,0
2018-05-01T01:31:50.012Z,0
2018-05-01T01:32:16.180Z,0
2018-05-01T01:32:42.353Z,0
2018-05-01T01:33:08.466Z,0
2018-05-01T01:33:34.605Z,0
2018-05-01T01:34:00.739Z,0
2018-05-01T01:34:26.871Z,0
2018-05-01T01:34:53.014Z,0
2018-05-01T01:35:19.172Z,0
2018-05-01T01:35:45.313Z,0
2018-05-01T01:36:11.452Z,0
2018-05-01T01:36:37.590Z,0
2018-05-01T01:37:03.757Z,0
2018-05-01T01:37:29.888Z,0
2018-05-01T01:37:56.025Z,0
2018-05-01T01:38:22.184Z,0
2018-05-01T01:38:48.327Z,0
2018-05-01T01:39:14.486Z,0
2018-05-01T01:39:40.652Z,0
2018-05-01T01:40:06.787Z,0
2018-05-01T01:40:32.921Z,0
2018-05-01T01:40:59.055Z,0
2018-05-01T01:41:25.200Z,0
2018-05-01T01:41:51.337Z,0
2018-05-01T01:42:17.473Z,0
2018-05-01T01:42:43.633Z,0
2018-05-01T01:43:09.765Z,0
2018-05-01T01:43:35.901Z,0
2018-05-01T01:44:02.040Z,0
2018-05-01T01:44:28.174Z,0
2018-05-01T01:44:54.308Z,0
2018-05-01T01:45:20.452Z,0
2018-05-01T01:45:46.585Z,0
2018-05-01T01:46:12.740Z,0
2018-05-01T01:46:38.881Z,0
2018-05-01T01:47:05.014Z,0
2018-05-01T01:47:31.156Z,0
2018-05-01T01:47:57.335Z,0
2018-05-01T01:48:23.472Z,0
2018-05-01T01:48:49.610Z,0
2018-05-01T01:49:15.744Z,0
2018-05-01T01:49:41.885Z,0
2018-05-01T01:50:08.021Z,0
2018-05-01T01:50:34.161Z,0
2018-05-01T01:51:00.293Z,0
2018-05-01T01:51:26.431Z,0
2018-05-01T01:51:52.568Z,0
2018-05-01T01:52:18.702Z,0
2018-05-01T01:52:44.833Z,0
2018-05-01T01:53:11.000Z,0
2018-05-01T01:53:37.140Z,0
2018-05-01T01:54:03.276Z,0
2018-05-01T01:54:29.435Z,0
2018-05-01T01:54:55.568Z,0
2018-05-01T01:55:21.711Z,0
2018-05-01T01:55:47.852Z,0
2018-05-01T01:56:14.025Z,0
2018-05-01T01:56:40.166Z,0
2018-05-01T01:57:06.296Z,0
2018-05-01T01:57:32.479Z,0
2018-05-01T01:57:58.629Z,0
2018-05-01T01:58:24.758Z,0
2018-05-01T01:58:50.895Z,0
2018-05-01T01:59:17.034Z,0
2018-05-01T01:59:43.165Z,0
2018-05-01T02:00:09.306Z,0
2018-05-01T02:00:35.443Z,0
2018-05-01T02:01:01.597Z,0
2018-05-01T02:01:27.730Z,0
2018-05-01T02:01:53.868Z,0
2018-05-01T02:02:20.007Z,0
2018-05-01T02:02:46.150Z,0
2018-05-01T02:03:12.277Z,0
2018-05-01T02:03:38.418Z,0
2018-05-01T02:04:04.551Z,0
2018-05-01T02:04:30.716Z,0
2018-05-01T02:04:56.848Z,0
2018-05-01T02:05:22.986Z,0
2018-05-01T02:05:49.146Z,0
2018-05-01T02:06:15.290Z,0
2018-05-01T02:06:41.444Z,0
2018-05-01T02:07:07.605Z,0
2018-05-01T02:07:33.746Z,0
2018-05-01T02:07:59.888Z,0
2018-05-01T02:08:26.023Z,0
2018-05-01T02:08:52.162Z,0
2018-05-01T02:09:18.296Z,0
2018-05-01T02:09:44.436Z,0
2018-05-01T02:10:10.573Z,0
2018-05-01T02:10:36.734Z,0
2018-05-01T02:11:02.868Z,0
2018-05-01T02:11:29.009Z,0
2018-05-01T02:11:55.167Z,0
2018-05-01T02:12:21.310Z,0
2018-05-01T02:12:47.443Z,0
2018-05-01T02:13:13.578Z,0
2018-05-01T02:13:39.704Z,0
2018-05-01T02:14:05.874Z,0
2018-05-01T02:14:32.003Z,0
2018-05-01T02:14:58.140Z,0
2018-05-01T02:15:24.269Z,0
2018-05-01T02:15:50.413Z,0
2018-05-01T02:16:16.541Z,0
2018-05-01T02:16:42.675Z,0
2018-05-01T02:17:08.840Z,0
2018-05-01T02:17:34.973Z,0
2018-05-01T02:18:01.109Z,0
2018-05-01T02:18:27.267Z,0
2018-05-01T02:18:53.404Z,0
2018-05-01T02:19:19.544Z,0
2018-05-01T02:19:45.678Z,0
2018-05-01T02:20:11.817Z,0
2018-05-01T02:20:37.982Z,0
2018-05-01T02:21:04.122Z,0
2018-05-01T02:21:30.284Z,0
2018-05-01T02:21:56.424Z,0
2018-05-01T02:22:22.584Z,0
2018-05-01T02:22:48.719Z,0
2018-05-01T02:23:14.853Z,0
2018-05-01T02:23:40.987Z,0
2018-05-01T02:24:07.126Z,0
2018-05-01T02:24:33.265Z,0
2018-05-01T02:24:59.471Z,0
2018-05-01T02:25:25.611Z,0
2018-05-01T02:25:51.742Z,0
2018-05-01T02:26:17.883Z,0
2018-05-01T02:26:44.040Z,0
2018-05-01T02:27:10.180Z,0
2018-05-01T02:27:36.330Z,0
2018-05-01T02:28:02.471Z,0
2018-05-01T02:28:28.636Z,0
2018-05-01T02:28:54.772Z,0
2018-05-01T02:29:20.915Z,0
2018-05-01T02:29:47.054Z,0
2018-05-01T02:30:13.194Z,0
2018-05-01T02:30:39.327Z,0
2018-05-01T02:31:05.537Z,0
2018-05-01T02:31:31.700Z,0
2018-05-01T02:31:57.864Z,0
2018-05-01T02:32:24.027Z,0
2018-05-01T02:32:50.261Z,0
2018-05-01T02:33:16.402Z,0
2018-05-01T02:33:42.609Z,0
2018-05-01T02:34:08.753Z,0
2018-05-01T02:34:34.889Z,0
2018-05-01T02:35:01.053Z,0
2018-05-01T02:35:27.219Z,0
2018-05-01T02:35:53.353Z,0
2018-05-01T02:36:19.535Z,0
2018-05-01T02:36:45.718Z,0
2018-05-01T02:37:11.853Z,0
2018-05-01T02:37:38.010Z,0
2018-05-01T02:38:04.179Z,0
2018-05-01T02:38:30.312Z,0
2018-05-01T02:38:56.457Z,0
2018-05-01T02:39:22.586Z,0
2018-05-01T02:39:48.786Z,0
2018-05-01T02:40:14.941Z,0
2018-05-01T02:40:41.098Z,0
2018-05-01T02:41:07.241Z,0
2018-05-01T02:41:33.407Z,0
2018-05-01T02:41:59.582Z,0
2018-05-01T02:42:25.793Z,0
2018-05-01T02:42:51.942Z,0
2018-05-01T02:43:18.112Z,0
2018-05-01T02:43:44.301Z,0
2018-05-01T02:44:10.430Z,0
2018-05-01T02:44:36.599Z,0
2018-05-01T02:45:02.753Z,0
2018-05-01T02:45:28.913Z,0
2018-05-01T02:45:55.053Z,0
2018-05-01T02:46:21.240Z,0
2018-05-01T02:46:47.416Z,0
2018-05-01T02:47:13.582Z,0
2018-05-01T02:47:39.739Z,0
2018-05-01T02:48:05.880Z,0
2018-05-01T02:48:32.003Z,0
2018-05-01T02:48:58.185Z,0
2018-05-01T02:49:24.373Z,0
2018-05-01T02:49:50.518Z,0
2018-05-01T02:50:16.668Z,0
2018-05-01T02:50:42.845Z,0
2018-05-01T02:51:08.985Z,0
2018-05-01T02:51:35.120Z,0
2018-05-01T02:52:01.254Z,0
2018-05-01T02:52:27.439Z,0
2018-05-01T02:52:53.576Z,0
2018-05-01T02:53:19.780Z,0
2018-05-01T02:53:45.939Z,0
2018-05-01T02:54:12.097Z,0
2018-05-01T02:54:38.263Z,0
2018-05-01T02:55:04.452Z,0
2018-05-01T02:55:30.579Z,0
2018-05-01T02:55:56.859Z,0
2018-05-01T02:56:22.919Z,0
2018-05-01T02:56:49.055Z,0
2018-05-01T02:57:15.220Z,0
2018-05-01T02:57:41.411Z,0
2018-05-01T02:58:07.591Z,0
2018-05-01T02:58:33.755Z,0
2018-05-01T02:58:59.919Z,0
2018-05-01T02:59:26.063Z,0
2018-05-01T02:59:52.202Z,0
2018-05-01T03:00:18.362Z,0
2018-05-01T03:00:44.498Z,0
2018-05-01T03:01:10.650Z,0
2018-05-01T03:01:36.787Z,0
2018-05-01T03:02:02.919Z,0
2018-05-01T03:02:29.058Z,0
2018-05-01T03:02:55.212Z,0
2018-05-01T03:03:21.374Z,0
2018-05-01T03:03:47.532Z,0
2018-05-01T03:04:13.666Z,0
2018-05-01T03:04:39.829Z,0
2018-05-01T03:05:05.955Z,0
2018-05-01T03:05:32.096Z,0
2018-05-01T03:05:58.275Z,0
2018-05-01T03:06:24.433Z,0
2018-05-01T03:06:50.594Z,0
2018-05-01T03:07:16.735Z,0
2018-05-01T03:07:42.869Z,0
2018-05-01T03:08:09.026Z,0
2018-05-01T03:08:35.181Z,0
2018-05-01T03:09:01.386Z,0
2018-05-01T03:09:27.530Z,0
2018-05-01T03:09:53.773Z,0
2018-05-01T03:10:19.849Z,0
2018-05-01T03:10:46.010Z,0
2018-05-01T03:11:12.162Z,0
2018-05-01T03:11:38.300Z,0
2018-05-01T03:12:04.485Z,0
2018-05-01T03:12:30.623Z,0
2018-05-01T03:12:56.788Z,0
2018-05-01T03:13:22.966Z,0
2018-05-01T03:13:49.152Z,0
2018-05-01T03:14:15.343Z,0
2018-05-01T03:14:41.497Z,0
2018-05-01T03:15:07.641Z,0
2018-05-01T03:15:33.795Z,0
2018-05-01T03:15:59.957Z,0
2018-05-01T03:16:26.087Z,0
2018-05-01T03:16:52.296Z,0
2018-05-01T03:17:18.357Z,0
2018-05-01T03:17:44.497Z,0
2018-05-01T03:18:10.634Z,0
2018-05-01T03:18:36.770Z,0
2018-05-01T03:19:02.897Z,0
2018-05-01T03:19:29.038Z,0
2018-05-01T03:19:55.171Z,0
2018-05-01T03:20:21.334Z,0
2018-05-01T03:20:47.472Z,0
2018-05-01T03:21:13.613Z,0
2018-05-01T03:21:39.744Z,0
2018-05-01T03:22:05.878Z,0
2018-05-01T03:22:32.050Z,0
2018-05-01T03:22:58.187Z,0
2018-05-01T03:23:24.321Z,0
2018-05-01T03:23:50.478Z,0
2018-05-01T03:24:16.616Z,0
2018-05-01T03:24:42.777Z,0
2018-05-01T03:25:08.907Z,0
2018-05-01T03:25:35.047Z,0
2018-05-01T03:26:01.181Z,0
2018-05-01T03:26:27.352Z,0
2018-05-01T03:26:53.491Z,0
2018-05-01T03:27:19.619Z,0
2018-05-01T03:27:45.763Z,0
2018-05-01T03:28:11.930Z,0
2018-05-01T03:28:38.070Z,0
2018-05-01T03:29:04.227Z,0
2018-05-01T03:29:30.353Z,0
2018-05-01T03:29:56.488Z,0
2018-05-01T03:30:22.672Z,0
2018-05-01T03:30:48.860Z,0
2018-05-01T03:31:15.021Z,0
2018-05-01T03:31:41.179Z,0
2018-05-01T03:32:07.380Z,0
2018-05-01T03:32:33.519Z,0
2018-05-01T03:32:59.653Z,0
2018-05-01T03:33:25.812Z,0
2018-05-01T03:33:51.948Z,0
2018-05-01T03:34:18.081Z,0
2018-05-01T03:34:44.230Z,0
2018-05-01T03:35:10.366Z,0
2018-05-01T03:35:36.499Z,0
2018-05-01T03:36:02.670Z,0
2018-05-01T03:36:28.804Z,0
2018-05-01T03:36:54.937Z,0
2018-05-01T03:37:21.069Z,0
2018-05-01T03:37:47.212Z,0
2018-05-01T03:38:13.345Z,0
2018-05-01T03:38:39.481Z,0
2018-05-01T03:39:05.730Z,0
2018-05-01T03:39:31.768Z,0
2018-05-01T03:39:57.923Z,0
2018-05-01T03:40:24.094Z,0
2018-05-01T03:40:50.254Z,0
2018-05-01T03:41:16.393Z,0
2018-05-01T03:41:42.524Z,0
2018-05-01T03:42:08.668Z,0
2018-05-01T03:42:34.801Z,0
2018-05-01T03:43:00.933Z,0
2018-05-01T03:43:27.077Z,0
2018-05-01T03:43:53.210Z,0
2018-05-01T03:44:19.351Z,0
2018-05-01T03:44:45.475Z,0
2018-05-01T03:45:11.614Z,0
2018-05-01T03:45:37.749Z,0
2018-05-01T03:46:03.891Z,0
2018-05-01T03:46:30.025Z,0
2018-05-01T03:46:56.184Z,0
2018-05-01T03:47:22.311Z,0
2018-05-01T03:47:48.469Z,0
2018-05-01T03:48:14.606Z,0
2018-05-01T03:48:40.736Z,0
2018-05-01T03:49:06.879Z,0
2018-05-01T03:49:33.012Z,0
2018-05-01T03:49:59.177Z,0
2018-05-01T03:50:25.311Z,0
2018-05-01T03:50:51.476Z,0
2018-05-01T03:51:17.608Z,0
2018-05-01T03:51:43.746Z,0
2018-05-01T03:52:09.909Z,0
2018-05-01T03:52:36.041Z,0
2018-05-01T03:53:02.180Z,0
2018-05-01T03:53:28.311Z,0
2018-05-01T03:53:54.451Z,0
2018-05-01T03:54:20.585Z,0
2018-05-01T03:54:46.721Z,0
2018-05-01T03:55:12.865Z,0
2018-05-01T03:55:39.025Z,0
2018-05-01T03:56:05.164Z,0
2018-05-01T03:56:31.338Z,0
2018-05-01T03:56:57.480Z,0
2018-05-01T03:57:23.610Z,0
2018-05-01T03:57:49.752Z,0
2018-05-01T03:58:15.886Z,0
2018-05-01T03:58:42.020Z,0
2018-05-01T03:59:08.161Z,0
2018-05-01T03:59:34.293Z,0
2018-05-01T04:00:00.436Z,0
2018-05-01T04:00:26.593Z,0
2018-05-01T04:00:52.770Z,0
2018-05-01T04:01:18.900Z,0
2018-05-01T04:01:45.032Z,0
2018-05-01T04:02:11.181Z,0
2018-05-01T04:02:37.308Z,0
2018-05-01T04:03:03.448Z,0
2018-05-01T04:03:29.607Z,0
2018-05-01T04:03:55.754Z,0
2018-05-01T04:04:21.908Z,0
2018-05-01T04:04:48.049Z,0
2018-05-01T04:05:14.185Z,0
2018-05-01T04:05:40.318Z,0
2018-05-01T04:06:06.458Z,0
2018-05-01T04:06:32.594Z,0
2018-05-01T04:06:58.733Z,0
2018-05-01T04:07:24.867Z,0
2018-05-01T04:07:51.006Z,0
2018-05-01T04:08:17.143Z,0
2018-05-01T04:08:43.281Z,0
2018-05-01T04:09:09.418Z,0
2018-05-01T04:09:35.554Z,0
2018-05-01T04:10:01.699Z,0
2018-05-01T04:10:27.830Z,0
2018-05-01T04:10:53.962Z,0
2018-05-01T04:11:20.104Z,0
2018-05-01T04:11:46.245Z,0
2018-05-01T04:12:12.379Z,0
2018-05-01T04:12:38.520Z,0
2018-05-01T04:13:04.654Z,0
2018-05-01T04:13:30.806Z,0
2018-05-01T04:13:56.967Z,0
2018-05-01T04:14:23.143Z,0
2018-05-01T04:14:49.287Z,0
2018-05-01T04:15:15.422Z,0
2018-05-01T04:15:41.549Z,0
2018-05-01T04:16:07.689Z,0
2018-05-01T04:16:33.822Z,0
2018-05-01T04:16:59.961Z,0
2018-05-01T04:17:26.094Z,0
2018-05-01T04:17:52.239Z,0
2018-05-01T04:18:18.473Z,0
2018-05-01T04:18:44.561Z,0
2018-05-01T04:19:10.726Z,0
2018-05-01T04:19:36.863Z,5
2018-05-01T04:20:03.002Z,5
2018-05-01T04:20:29.141Z,5
2018-05-01T04:20:55.274Z,5
2018-05-01T04:21:21.443Z,5
2018-05-01T04:21:47.577Z,5
2018-05-01T04:22:13.715Z,5
2018-05-01T04:22:39.853Z,5
2018-05-01T04:23:05.986Z,5
2018-05-01T04:23:32.125Z,5
2018-05-01T04:23:58.256Z,5
2018-05-01T04:24:24.393Z,5
2018-05-01T04:24:50.534Z,5
2018-05-01T04:25:16.690Z,5
2018-05-01T04:25:42.822Z,5
2018-05-01T04:26:08.997Z,5
2018-05-01T04:26:35.135Z,5
2018-05-01T04:27:01.275Z,5
2018-05-01T04:27:27.404Z,5
2018-05-01T04:27:53.544Z,5
2018-05-01T04:28:19.697Z,5
2018-05-01T04:28:45.862Z,5
2018-05-01T04:29:12.025Z,5
2018-05-01T04:29:38.189Z,5
2018-05-01T04:30:04.323Z,5
2018-05-01T04:30:30.463Z,5
2018-05-01T04:30:56.608Z,5
2018-05-01T04:31:22.740Z,5
2018-05-01T04:31:48.879Z,5
2018-05-01T04:32:15.011Z,10
2018-05-01T04:32:41.152Z,5
2018-05-01T04:33:07.288Z,5
2018-05-01T04:33:33.415Z,5
2018-05-01T04:33:59.557Z,5
2018-05-01T04:34:25.687Z,5
2018-05-01T04:34:51.834Z,5
2018-05-01T04:35:17.976Z,10
2018-05-01T04:35:44.137Z,15
2018-05-01T04:36:10.264Z,15
2018-05-01T04:36:36.409Z,10
2018-05-01T04:37:02.547Z,10
2018-05-01T04:37:28.702Z,10
2018-05-01T04:37:54.835Z,10
2018-05-01T04:38:20.976Z,10
2018-05-01T04:38:47.115Z,10
2018-05-01T04:39:13.248Z,10
2018-05-01T04:39:39.410Z,10
2018-05-01T04:40:06.364Z,15
2018-05-01T04:40:32.539Z,15
2018-05-01T04:40:58.697Z,15
2018-05-01T04:41:24.850Z,15
2018-05-01T04:41:51.018Z,15
2018-05-01T04:42:17.155Z,15
2018-05-01T04:42:43.298Z,15
2018-05-01T04:43:09.435Z,15
2018-05-01T04:43:35.570Z,15
2018-05-01T04:44:01.711Z,15
2018-05-01T04:44:27.873Z,15
2018-05-01T04:44:54.007Z,15
2018-05-01T04:45:20.169Z,15
2018-05-01T04:45:46.313Z,15
2018-05-01T04:46:12.449Z,15
2018-05-01T04:46:38.583Z,15
2018-05-01T04:47:04.717Z,15
2018-05-01T04:47:30.888Z,15
2018-05-01T04:47:57.019Z,15
2018-05-01T04:48:23.152Z,15
2018-05-01T04:48:49.286Z,15
2018-05-01T04:49:15.447Z,15
2018-05-01T04:49:41.591Z,20
2018-05-01T04:50:07.752Z,20
2018-05-01T04:50:33.884Z,20
2018-05-01T04:51:00.017Z,15
2018-05-01T04:51:26.159Z,20
2018-05-01T04:51:52.291Z,25
2018-05-01T04:52:18.452Z,25
2018-05-01T04:52:44.584Z,15
2018-05-01T04:53:10.727Z,15
2018-05-01T04:53:36.860Z,20
2018-05-01T04:54:03.043Z,20
2018-05-01T04:54:29.177Z,20
2018-05-01T04:54:55.318Z,20
2018-05-01T04:55:21.453Z,20
2018-05-01T04:55:47.586Z,20
2018-05-01T04:56:13.749Z,20
2018-05-01T04:56:39.885Z,20
2018-05-01T04:57:06.028Z,20
2018-05-01T04:57:32.168Z,20
2018-05-01T04:57:58.298Z,20
2018-05-01T04:58:24.448Z,20
2018-05-01T04:58:50.599Z,15
2018-05-01T04:59:16.761Z,20
2018-05-01T04:59:42.917Z,20
2018-05-01T05:00:09.057Z,20
2018-05-01T05:00:35.191Z,25
2018-05-01T05:01:01.354Z,20
2018-05-01T05:01:27.516Z,20
2018-05-01T05:01:53.696Z,25
2018-05-01T05:02:19.829Z,25
2018-05-01T05:02:45.969Z,25
2018-05-01T05:03:12.111Z,20
2018-05-01T05:03:38.270Z,20
2018-05-01T05:04:04.405Z,20
2018-05-01T05:04:30.541Z,20
2018-05-01T05:04:56.679Z,20
2018-05-01T05:05:22.817Z,20
2018-05-01T05:05:48.956Z,20
2018-05-01T05:06:15.091Z,25
2018-05-01T05:06:41.235Z,25
2018-05-01T05:07:07.365Z,25
2018-05-01T05:07:33.508Z,30
2018-05-01T05:07:59.647Z,20
2018-05-01T05:08:25.782Z,20
2018-05-01T05:08:51.912Z,25
2018-05-01T05:09:18.050Z,25
2018-05-01T05:09:44.208Z,25
2018-05-01T05:10:10.341Z,25
2018-05-01T05:10:36.482Z,25
2018-05-01T05:11:02.646Z,25
2018-05-01T05:11:28.813Z,25
2018-05-01T05:11:54.944Z,25
2018-05-01T05:12:21.085Z,30
2018-05-01T05:12:47.224Z,30
2018-05-01T05:13:13.351Z,25
2018-05-01T05:13:39.484Z,25
2018-05-01T05:14:05.650Z,30
2018-05-01T05:14:31.790Z,25
2018-05-01T05:14:57.927Z,25
2018-05-01T05:15:24.061Z,30
2018-05-01T05:15:50.203Z,25
2018-05-01T05:16:16.341Z,25
2018-05-01T05:16:42.475Z,25
2018-05-01T05:17:08.613Z,25
2018-05-01T05:17:34.763Z,25
2018-05-01T05:18:00.891Z,25
2018-05-01T05:18:27.034Z,30
2018-05-01T05:18:53.179Z,25
2018-05-01T05:19:19.335Z,30
2018-05-01T05:19:45.465Z,30
2018-05-01T05:20:11.606Z,30
2018-05-01T05:20:37.743Z,25
2018-05-01T05:21:03.877Z,30
2018-05-01T05:21:30.062Z,35
2018-05-01T05:21:56.209Z,30
2018-05-01T05:22:22.378Z,30
2018-05-01T05:22:48.519Z,30
2018-05-01T05:23:14.646Z,25
2018-05-01T05:23:40.785Z,25
2018-05-01T05:24:06.945Z,25
2018-05-01T05:24:33.105Z,25
2018-05-01T05:24:59.231Z,25
2018-05-01T05:25:25.373Z,25
2018-05-01T05:25:51.524Z,20
2018-05-01T05:26:17.661Z,20
2018-05-01T05:26:43.822Z,20
2018-05-01T05:27:09.955Z,25
2018-05-01T05:27:36.122Z,25
2018-05-01T05:28:02.259Z,20
2018-05-01T05:28:28.386Z,20
2018-05-01T05:28:54.524Z,25
2018-05-01T05:29:20.762Z,30
2018-05-01T05:29:46.897Z,25
2018-05-01T05:30:13.055Z,25
2018-05-01T05:30:39.192Z,30
2018-05-01T05:31:05.334Z,30
2018-05-01T05:31:31.495Z,30
2018-05-01T05:31:57.635Z,35
2018-05-01T05:32:23.797Z,30
2018-05-01T05:32:49.933Z,25
2018-05-01T05:33:16.082Z,30
2018-05-01T05:33:42.222Z,30
2018-05-01T05:34:08.355Z,35
2018-05-01T05:34:35.491Z,40
2018-05-01T05:35:01.631Z,35
2018-05-01T05:35:27.774Z,35
2018-05-01T05:35:53.912Z,35
2018-05-01T05:36:20.115Z,35
2018-05-01T05:36:46.175Z,35
2018-05-01T05:37:12.313Z,40
2018-05-01T05:37:38.476Z,35
2018-05-01T05:38:04.611Z,30
2018-05-01T05:38:30.751Z,35
2018-05-01T05:38:56.880Z,35
2018-05-01T05:39:23.021Z,35
2018-05-01T05:39:49.187Z,35
2018-05-01T05:40:15.327Z,35
2018-05-01T05:40:41.500Z,35
2018-05-01T05:41:07.641Z,40
2018-05-01T05:41:33.802Z,40
2018-05-01T05:41:59.939Z,40
2018-05-01T05:42:26.077Z,45
2018-05-01T05:42:52.312Z,45
2018-05-01T05:43:18.374Z,45
2018-05-01T05:43:44.564Z,40
2018-05-01T05:44:10.753Z,55
2018-05-01T05:44:36.925Z,50
2018-05-01T05:45:03.060Z,45
2018-05-01T05:45:29.205Z,50
2018-05-01T05:45:55.340Z,55
2018-05-01T05:46:21.479Z,55
2018-05-01T05:46:47.641Z,40
2018-05-01T05:47:13.765Z,40
2018-05-01T05:47:39.900Z,45
2018-05-01T05:48:06.065Z,40
2018-05-01T05:48:32.204Z,40
2018-05-01T05:48:58.462Z,50
2018-05-01T05:49:24.503Z,40
2018-05-01T05:49:50.682Z,50
2018-05-01T05:50:16.828Z,45
2018-05-01T05:50:42.963Z,45
2018-05-01T05:51:09.095Z,55
2018-05-01T05:51:35.229Z,50
2018-05-01T05:52:01.376Z,45
2018-05-01T05:52:27.508Z,40
2018-05-01T05:52:53.670Z,40
2018-05-01T05:53:19.805Z,45
2018-05-01T05:53:45.940Z,50
2018-05-01T05:54:12.072Z,45
2018-05-01T05:54:38.231Z,45
2018-05-01T05:55:04.362Z,35
2018-05-01T05:55:30.518Z,35
2018-05-01T05:55:56.657Z,30
2018-05-01T05:56:22.792Z,35
2018-05-01T05:56:48.933Z,35
2018-05-01T05:57:15.071Z,35
2018-05-01T05:57:41.210Z,35
2018-05-01T05:58:07.342Z,35
2018-05-01T05:58:33.514Z,35
2018-05-01T05:58:59.666Z,40
2018-05-01T05:59:25.805Z,35
2018-05-01T05:59:51.939Z,40
2018-05-01T06:00:18.106Z,40
2018-05-01T06:00:44.236Z,35
2018-05-01T06:01:10.531Z,30
2018-05-01T06:01:36.589Z,25
2018-05-01T06:02:02.782Z,30
2018-05-01T06:02:28.919Z,35
2018-05-01T06:02:55.050Z,30
2018-05-01T06:03:21.207Z,30
2018-05-01T06:03:47.374Z,25
2018-05-01T06:04:13.511Z,25
2018-05-01T06:04:39.647Z,25
2018-05-01T06:05:05.785Z,25
2018-05-01T06:05:31.911Z,25
2018-05-01T06:05:58.061Z,25
2018-05-01T06:06:24.190Z,25
2018-05-01T06:06:50.324Z,20
2018-05-01T06:07:16.565Z,25
2018-05-01T06:07:42.718Z,25
2018-05-01T06:08:08.793Z,25
2018-05-01T06:08:34.925Z,25
2018-05-01T06:09:01.069Z,30
2018-05-01T06:09:27.204Z,30
2018-05-01T06:09:53.344Z,25
2018-05-01T06:10:19.477Z,30
2018-05-01T06:10:45.609Z,35
2018-05-01T06:11:11.776Z,30
2018-05-01T06:11:37.894Z,30
2018-05-01T06:12:04.058Z,40
2018-05-01T06:12:30.217Z,35
2018-05-01T06:12:56.366Z,35
2018-05-01T06:13:22.508Z,35
2018-05-01T06:13:48.684Z,35
2018-05-01T06:14:14.830Z,45
2018-05-01T06:14:40.970Z,40
2018-05-01T06:15:07.112Z,40
2018-05-01T06:15:33.264Z,35
2018-05-01T06:15:59.400Z,35
2018-05-01T06:16:25.531Z,35
2018-05-01T06:16:51.692Z,40
2018-05-01T06:17:17.817Z,35
2018-05-01T06:17:43.940Z,40
2018-05-01T06:18:10.081Z,40
2018-05-01T06:18:36.213Z,40
2018-05-01T06:19:02.355Z,40
2018-05-01T06:19:28.518Z,40
2018-05-01T06:19:54.657Z,45
2018-05-01T06:20:20.793Z,55
2018-05-01T06:20:46.928Z,60
2018-05-01T06:21:13.101Z,55
2018-05-01T06:21:39.547Z,50
2018-05-01T06:22:05.923Z,50
2018-05-01T06:22:31.875Z,50
2018-05-01T06:22:58.046Z,45